ADDS METAR Data INFO
IDs: Format: Raw Decoded Include TAF

Data at: 1513 UTC 21 Feb 2018

KGAG 201453Z AUTO 35016KT 1 1/2SM -FZRA BR OVC005 M07/M08 A3006 RMK AO2 FZRAB40 SLP197 P0000 60000 I1002 I3/// T10721083
KGAG 211353Z AUTO 01008KT 10SM CLR M09/M15 A3043 RMK AO2 SLP332 T10891150
KGAG 211253Z AUTO 02013G19KT 10SM BKN100 M09/M16 A3041 RMK AO2 SLP326 T10941156
KGAG 201513Z AUTO 35016G21KT 2SM -FZRA BR OVC006 M07/M08 A3005 RMK AO2 CIG 004V009 P0000 I1001 T10721083
KGAG 201453Z AUTO 35016KT 1 1/2SM -FZRA BR OVC005 M07/M08 A3006 RMK AO2 FZRAB40 SLP197 P0000 60000 I1002 I3/// T10721083
KGAG 201443Z AUTO 35012KT 1 3/4SM -FZRA BR OVC005 M07/M08 A3005 RMK AO2 FZRAB40 P0000 I1002 T10721083
KGAG 201437Z AUTO 35015KT 1 3/4SM BR OVC006 M07/M08 A3004 RMK AO2 I1001 T10721083
KGAG 201430Z AUTO 36014G24KT 2SM BR OVC006 M07/M08 A3004 RMK AO2 I1001 T10721083
KGAG 201418Z AUTO 36016G22KT 4SM BR BKN006 OVC010 M07/M09 A3003 RMK AO2 I1001 T10721089
KGAG 201406Z AUTO 35016G23KT 2 1/2SM BR OVC006 M07/M08 A3002 RMK AO2 I1000 T10721083
KGAG 201353Z AUTO 35015G21KT 4SM BR M07/M08 A3001 RMK AO2 SLP181 I1/// T10671083
KGAG 201302Z AUTO 01019G25KT 8SM BKN007 OVC012 M06/M08 A2996 RMK AO2 CIG 004V010 T10611078 $
KGAG 201253Z AUTO 36017G23KT 7SM OVC005 M06/M07 A2995 RMK AO2 FZRAE22 CIG 004V010 SLP158 P0000 I1002 T10611072 $
KGAG 201228Z AUTO 36013G23KT 3SM BR OVC005 M06/M07 A2992 RMK AO2 FZRAE22 P0000 I1002 T10561067 $
KGAG 201219Z AUTO 01015G24KT 3SM -FZRA BR OVC005 M06/M06 A2992 RMK AO2 P0000 I1001 T10561061 $
KGAG 201153Z AUTO 36014G22KT 2SM -FZRA BR OVC004 M05/M06 A2989 RMK AO2 FZRAB1054 SLP135 P0000 60000 70006 I1003 I6005 T10501056 10011 21050 51039 $
KGAG 201115Z AUTO 36016G22KT 2SM -FZRA BR OVC003 M04/M04 A2985 RMK AO2 FZRAB1054 P0000 I1001 T10391044 $
KGAG 201100Z AUTO 01015G21KT 1 3/4SM -FZRA BR OVC003 M03/M04 A2985 RMK AO2 FZRAB1054 P0000 I1000 T10331039 $
KGAG 201053Z AUTO 01018G21KT 1 3/4SM BR OVC003 M03/M04 A2984 RMK AO2 SLP111 I1002 T10281039 $
KGAG 201049Z AUTO 36017G21KT 1 3/4SM BR OVC003 M03/M04 A2984 RMK AO2 PRESRR I1001 $
KGAG 201019Z AUTO 01014KT 2SM BR OVC002 M02/M03 A2979 RMK AO2 LTG DSNT E AND SE I1000 T10221028 $
KGAG 200953Z AUTO 02013KT 1 1/2SM BR OVC002 M01/M02 A2977 RMK AO2 LTG DSNT E-S UPB19E29 PRESRR SLP085 P0000 I1000 T10111017 $
KGAG 200944Z AUTO 01012KT 1 1/4SM BR OVC002 M01/M01 A2975 RMK AO2 LTG DSNT E-S UPB19E29 P0000 I1000 T10061011 $
KGAG 200853Z AUTO 05009KT 1/2SM FZFG VV002 M01/M01 A2974 RMK AO2 SLP075 60000 T10061011 53014 $
KGAG 200753Z AUTO 01013KT 3/4SM BR OVC002 00/M01 A2973 RMK AO2 UPE02 PRESRR SLP072 P0000 T00001006 $
KGAG 200720Z AUTO 06008KT 3/4SM BR OVC003 01/01 A2968 RMK AO2 LTG DSNT NW UPE02 P0000 T00110006 $
KGAG 200711Z AUTO 08006KT 2SM BR OVC003 01/00 A2968 RMK AO2 LTG DSNT NW UPE02 P0000 T00110000 $
KGAG 200653Z AUTO 08007KT 4SM UP BR OVC003 01/00 A2969 RMK AO2 UPB53 SLP057 P0000 T00110000 $
KGAG 200625Z AUTO 07006KT 4SM BR OVC004 01/00 A2969 RMK AO2 T00110000 $
KGAG 200614Z AUTO 07007KT 4SM BR OVC005 01/00 A2970 RMK AO2 CIG 003V006 T00110000 $
KGAG 200553Z AUTO 08009KT 6SM BR OVC006 01/00 A2970 RMK AO2 SLP065 60006 T00110000 10061 20011 401780006 53004 $
KGAG 200453Z AUTO 07008KT 10SM OVC009 01/M01 A2969 RMK AO2 SLP064 T00111011 $
KGAG 200426Z AUTO 07008KT 10SM OVC009 02/M01 A2970 RMK AO2 T00171011 $
KGAG 200353Z AUTO 07007KT 10SM BKN012 02/M01 A2969 RMK AO2 RAB04E22 SLP063 P0006 T00171011 $
KGAG 200320Z AUTO 10008KT 5SM -RA BKN013 BKN060 BKN095 02/M01 A2969 RMK AO2 RAB04 P0006 T00171011 $